« Back
NWS Peachtree City, Ga » Text Product » ATL Terminal Aerodrome Forecast


Printer-friendly Version
Current Version              Previous Versions:   1  2  3  4  5  6  7  8  9  

Terminal Aerodrome Forecast

114
FTUS42 KFFC 281346 AAA
TAFATL
TAF AMD
KATL 281346Z 2814/2918 10005KT P6SM FEW020
     FM281600 16006KT P6SM VCSH BKN025
      TEMPO 2818/2822 VRB15KT 3SM -TSRA BKN015CB
     FM282200 14006KT P6SM SCT040 BKN080
     FM290600 VRB03KT P6SM SCT015 BKN045
     FM291400 17007KT P6SM BKN040=

USA.gov is the U.S. government's official web portal to all federal, state and local government web resources and services.